sensor_id;sensor_type;location;lat;lon;timestamp;P1;durP1;ratioP1;P2;durP2;ratioP2
21426;SDS011;10874;49.452;11.050;2023-06-22T00:02:02;9.30;;;7.97;;
21426;SDS011;10874;49.452;11.050;2023-06-22T00:04:29;8.77;;;7.40;;
21426;SDS011;10874;49.452;11.050;2023-06-22T00:06:55;8.97;;;7.23;;
21426;SDS011;10874;49.452;11.050;2023-06-22T00:09:22;10.10;;;8.03;;
21426;SDS011;10874;49.452;11.050;2023-06-22T00:11:49;8.67;;;7.47;;
21426;SDS011;10874;49.452;11.050;2023-06-22T00:14:16;8.37;;;7.33;;
21426;SDS011;10874;49.452;11.050;2023-06-22T00:16:42;14.93;;;7.67;;
21426;SDS011;10874;49.452;11.050;2023-06-22T00:19:09;7.67;;;6.87;;
21426;SDS011;10874;49.452;11.050;2023-06-22T00:21:38;8.13;;;7.10;;
21426;SDS011;10874;49.452;11.050;2023-06-22T00:24:05;10.20;;;7.20;;
21426;SDS011;10874;49.452;11.050;2023-06-22T00:26:32;10.43;;;7.57;;
21426;SDS011;10874;49.452;11.050;2023-06-22T00:28:59;9.33;;;7.43;;
21426;SDS011;10874;49.452;11.050;2023-06-22T00:31:26;8.33;;;7.40;;
21426;SDS011;10874;49.452;11.050;2023-06-22T00:33:53;8.33;;;6.90;;
21426;SDS011;10874;49.452;11.050;2023-06-22T00:36:20;7.20;;;6.60;;
21426;SDS011;10874;49.452;11.050;2023-06-22T00:38:47;7.97;;;6.70;;
21426;SDS011;10874;49.452;11.050;2023-06-22T00:41:16;7.60;;;6.83;;
21426;SDS011;10874;49.452;11.050;2023-06-22T00:43:43;8.47;;;6.37;;
21426;SDS011;10874;49.452;11.050;2023-06-22T00:46:09;7.63;;;6.77;;
21426;SDS011;10874;49.452;11.050;2023-06-22T00:48:36;8.07;;;7.27;;
21426;SDS011;10874;49.452;11.050;2023-06-22T00:51:03;6.93;;;6.23;;
21426;SDS011;10874;49.452;11.050;2023-06-22T00:53:30;7.27;;;6.57;;
21426;SDS011;10874;49.452;11.050;2023-06-22T00:56:01;10.27;;;7.07;;
21426;SDS011;10874;49.452;11.050;2023-06-22T00:58:29;7.83;;;7.03;;
21426;SDS011;10874;49.452;11.050;2023-06-22T01:00:56;8.97;;;7.03;;
21426;SDS011;10874;49.452;11.050;2023-06-22T01:03:26;7.47;;;6.73;;
21426;SDS011;10874;49.452;11.050;2023-06-22T01:05:55;7.07;;;6.27;;
21426;SDS011;10874;49.452;11.050;2023-06-22T01:16:15;9.03;;;6.87;;
21426;SDS011;10874;49.452;11.050;2023-06-22T01:18:43;9.37;;;7.17;;
21426;SDS011;10874;49.452;11.050;2023-06-22T01:21:12;6.80;;;6.20;;
21426;SDS011;10874;49.452;11.050;2023-06-22T01:29:15;9.57;;;6.97;;
21426;SDS011;10874;49.452;11.050;2023-06-22T01:31:42;7.50;;;6.67;;
21426;SDS011;10874;49.452;11.050;2023-06-22T01:34:11;8.07;;;7.23;;
21426;SDS011;10874;49.452;11.050;2023-06-22T01:36:39;9.17;;;7.10;;
21426;SDS011;10874;49.452;11.050;2023-06-22T01:39:06;7.37;;;6.67;;
21426;SDS011;10874;49.452;11.050;2023-06-22T01:41:34;7.87;;;6.87;;
21426;SDS011;10874;49.452;11.050;2023-06-22T01:44:02;7.80;;;7.00;;
21426;SDS011;10874;49.452;11.050;2023-06-22T01:46:29;6.80;;;6.20;;
21426;SDS011;10874;49.452;11.050;2023-06-22T01:48:56;9.17;;;7.00;;
21426;SDS011;10874;49.452;11.050;2023-06-22T01:51:23;7.17;;;6.53;;
21426;SDS011;10874;49.452;11.050;2023-06-22T01:53:50;8.27;;;6.83;;
21426;SDS011;10874;49.452;11.050;2023-06-22T01:56:18;7.23;;;6.60;;
21426;SDS011;10874;49.452;11.050;2023-06-22T01:58:48;8.13;;;7.37;;
21426;SDS011;10874;49.452;11.050;2023-06-22T02:01:17;8.13;;;7.07;;
21426;SDS011;10874;49.452;11.050;2023-06-22T02:03:50;8.00;;;6.73;;
21426;SDS011;10874;49.452;11.050;2023-06-22T02:06:27;9.13;;;7.27;;
21426;SDS011;10874;49.452;11.050;2023-06-22T02:08:58;8.70;;;7.70;;
21426;SDS011;10874;49.452;11.050;2023-06-22T02:11:27;8.53;;;7.37;;
21426;SDS011;10874;49.452;11.050;2023-06-22T02:13:55;9.30;;;8.07;;
21426;SDS011;10874;49.452;11.050;2023-06-22T02:16:24;9.90;;;7.20;;
21426;SDS011;10874;49.452;11.050;2023-06-22T02:18:51;9.17;;;7.60;;
21426;SDS011;10874;49.452;11.050;2023-06-22T02:21:18;8.27;;;7.47;;
21426;SDS011;10874;49.452;11.050;2023-06-22T02:23:46;8.30;;;7.50;;
21426;SDS011;10874;49.452;11.050;2023-06-22T02:26:12;9.00;;;7.43;;
21426;SDS011;10874;49.452;11.050;2023-06-22T02:28:39;9.57;;;7.20;;
21426;SDS011;10874;49.452;11.050;2023-06-22T02:31:06;8.07;;;7.27;;
21426;SDS011;10874;49.452;11.050;2023-06-22T02:33:33;8.47;;;7.67;;
21426;SDS011;10874;49.452;11.050;2023-06-22T02:36:00;8.37;;;6.57;;
21426;SDS011;10874;49.452;11.050;2023-06-22T02:38:26;8.17;;;6.80;;
21426;SDS011;10874;49.452;11.050;2023-06-22T02:40:53;7.40;;;6.70;;
21426;SDS011;10874;49.452;11.050;2023-06-22T02:43:20;7.03;;;6.23;;
21426;SDS011;10874;49.452;11.050;2023-06-22T02:45:47;6.90;;;6.23;;
21426;SDS011;10874;49.452;11.050;2023-06-22T02:48:15;8.57;;;6.57;;
21426;SDS011;10874;49.452;11.050;2023-06-22T02:50:42;7.50;;;6.20;;
21426;SDS011;10874;49.452;11.050;2023-06-22T02:53:08;7.23;;;6.53;;
21426;SDS011;10874;49.452;11.050;2023-06-22T02:55:39;7.47;;;6.73;;
21426;SDS011;10874;49.452;11.050;2023-06-22T02:58:06;7.83;;;6.90;;
21426;SDS011;10874;49.452;11.050;2023-06-22T03:00:36;7.83;;;7.03;;
21426;SDS011;10874;49.452;11.050;2023-06-22T03:03:03;9.80;;;6.80;;
21426;SDS011;10874;49.452;11.050;2023-06-22T03:05:30;8.93;;;8.03;;
21426;SDS011;10874;49.452;11.050;2023-06-22T03:07:58;8.37;;;7.57;;
21426;SDS011;10874;49.452;11.050;2023-06-22T03:10:27;7.83;;;6.83;;
21426;SDS011;10874;49.452;11.050;2023-06-22T03:12:54;8.03;;;7.30;;
21426;SDS011;10874;49.452;11.050;2023-06-22T03:15:21;8.67;;;7.73;;
21426;SDS011;10874;49.452;11.050;2023-06-22T03:17:50;9.13;;;8.23;;
21426;SDS011;10874;49.452;11.050;2023-06-22T03:20:17;9.20;;;8.07;;
21426;SDS011;10874;49.452;11.050;2023-06-22T03:22:44;8.50;;;7.63;;
21426;SDS011;10874;49.452;11.050;2023-06-22T03:25:10;8.87;;;8.03;;
21426;SDS011;10874;49.452;11.050;2023-06-22T03:27:42;8.77;;;7.50;;
21426;SDS011;10874;49.452;11.050;2023-06-22T03:30:09;9.47;;;8.57;;
21426;SDS011;10874;49.452;11.050;2023-06-22T03:32:36;9.37;;;8.40;;
21426;SDS011;10874;49.452;11.050;2023-06-22T03:35:05;9.03;;;8.13;;
21426;SDS011;10874;49.452;11.050;2023-06-22T03:37:34;8.83;;;7.87;;
21426;SDS011;10874;49.452;11.050;2023-06-22T03:40:01;9.27;;;8.37;;
21426;SDS011;10874;49.452;11.050;2023-06-22T03:42:33;9.47;;;8.57;;
21426;SDS011;10874;49.452;11.050;2023-06-22T03:45:00;9.50;;;8.30;;
21426;SDS011;10874;49.452;11.050;2023-06-22T03:47:27;9.30;;;8.13;;
21426;SDS011;10874;49.452;11.050;2023-06-22T03:49:54;8.90;;;8.00;;
21426;SDS011;10874;49.452;11.050;2023-06-22T03:52:22;9.17;;;8.37;;
21426;SDS011;10874;49.452;11.050;2023-06-22T03:54:48;8.30;;;7.50;;
21426;SDS011;10874;49.452;11.050;2023-06-22T03:57:15;8.63;;;7.80;;
21426;SDS011;10874;49.452;11.050;2023-06-22T03:59:42;9.10;;;8.23;;
21426;SDS011;10874;49.452;11.050;2023-06-22T04:02:09;8.80;;;7.30;;
21426;SDS011;10874;49.452;11.050;2023-06-22T04:04:35;8.40;;;7.07;;
21426;SDS011;10874;49.452;11.050;2023-06-22T04:07:03;8.10;;;7.30;;
21426;SDS011;10874;49.452;11.050;2023-06-22T04:09:30;9.00;;;7.70;;
21426;SDS011;10874;49.452;11.050;2023-06-22T04:11:56;11.80;;;7.90;;
21426;SDS011;10874;49.452;11.050;2023-06-22T04:14:23;8.47;;;6.77;;
21426;SDS011;10874;49.452;11.050;2023-06-22T04:16:50;8.27;;;7.40;;
21426;SDS011;10874;49.452;11.050;2023-06-22T04:19:16;8.13;;;7.33;;
21426;SDS011;10874;49.452;11.050;2023-06-22T04:21:44;7.33;;;6.63;;
21426;SDS011;10874;49.452;11.050;2023-06-22T04:24:11;7.97;;;6.70;;
21426;SDS011;10874;49.452;11.050;2023-06-22T04:26:38;8.53;;;7.17;;
21426;SDS011;10874;49.452;11.050;2023-06-22T04:29:08;7.70;;;6.90;;
21426;SDS011;10874;49.452;11.050;2023-06-22T04:31:37;8.27;;;7.30;;
21426;SDS011;10874;49.452;11.050;2023-06-22T04:34:05;8.03;;;7.23;;
21426;SDS011;10874;49.452;11.050;2023-06-22T04:36:33;8.53;;;7.10;;
21426;SDS011;10874;49.452;11.050;2023-06-22T04:39:07;8.93;;;7.40;;
21426;SDS011;10874;49.452;11.050;2023-06-22T04:41:39;8.47;;;7.63;;
21426;SDS011;10874;49.452;11.050;2023-06-22T04:44:10;7.70;;;7.00;;
21426;SDS011;10874;49.452;11.050;2023-06-22T04:46:37;8.13;;;7.37;;
21426;SDS011;10874;49.452;11.050;2023-06-22T04:49:05;8.23;;;7.43;;
21426;SDS011;10874;49.452;11.050;2023-06-22T04:51:32;8.67;;;7.37;;
21426;SDS011;10874;49.452;11.050;2023-06-22T04:53:59;8.17;;;7.37;;
21426;SDS011;10874;49.452;11.050;2023-06-22T04:56:27;10.40;;;7.80;;
21426;SDS011;10874;49.452;11.050;2023-06-22T04:58:57;8.23;;;7.53;;
21426;SDS011;10874;49.452;11.050;2023-06-22T05:01:23;9.30;;;7.53;;
21426;SDS011;10874;49.452;11.050;2023-06-22T05:03:51;9.23;;;7.30;;
21426;SDS011;10874;49.452;11.050;2023-06-22T05:06:27;6.93;;;6.20;;
21426;SDS011;10874;49.452;11.050;2023-06-22T05:08:55;7.97;;;7.20;;
21426;SDS011;10874;49.452;11.050;2023-06-22T05:11:27;11.50;;;7.50;;
21426;SDS011;10874;49.452;11.050;2023-06-22T05:13:54;8.97;;;8.10;;
21426;SDS011;10874;49.452;11.050;2023-06-22T05:16:21;9.50;;;7.10;;
21426;SDS011;10874;49.452;11.050;2023-06-22T05:18:51;9.43;;;7.50;;
21426;SDS011;10874;49.452;11.050;2023-06-22T05:21:23;8.90;;;8.00;;
21426;SDS011;10874;49.452;11.050;2023-06-22T05:23:50;9.07;;;8.17;;
21426;SDS011;10874;49.452;11.050;2023-06-22T05:26:18;9.73;;;8.17;;
21426;SDS011;10874;49.452;11.050;2023-06-22T05:29:02;9.20;;;8.13;;
21426;SDS011;10874;49.452;11.050;2023-06-22T05:31:29;8.87;;;8.07;;
21426;SDS011;10874;49.452;11.050;2023-06-22T05:33:56;8.33;;;7.53;;
21426;SDS011;10874;49.452;11.050;2023-06-22T05:36:23;8.63;;;7.30;;
21426;SDS011;10874;49.452;11.050;2023-06-22T05:38:52;8.93;;;7.70;;
21426;SDS011;10874;49.452;11.050;2023-06-22T05:41:19;9.13;;;7.87;;
21426;SDS011;10874;49.452;11.050;2023-06-22T05:43:46;8.60;;;7.73;;
21426;SDS011;10874;49.452;11.050;2023-06-22T05:46:12;8.07;;;7.27;;
21426;SDS011;10874;49.452;11.050;2023-06-22T05:48:39;8.47;;;7.60;;
21426;SDS011;10874;49.452;11.050;2023-06-22T05:51:06;8.23;;;6.90;;
21426;SDS011;10874;49.452;11.050;2023-06-22T05:53:33;8.97;;;7.77;;
21426;SDS011;10874;49.452;11.050;2023-06-22T05:55:59;10.63;;;8.07;;
21426;SDS011;10874;49.452;11.050;2023-06-22T05:58:26;8.20;;;7.27;;
21426;SDS011;10874;49.452;11.050;2023-06-22T06:00:53;8.80;;;7.60;;
21426;SDS011;10874;49.452;11.050;2023-06-22T06:03:19;7.37;;;6.63;;
21426;SDS011;10874;49.452;11.050;2023-06-22T06:05:46;8.47;;;7.63;;
21426;SDS011;10874;49.452;11.050;2023-06-22T06:08:13;8.43;;;7.63;;
21426;SDS011;10874;49.452;11.050;2023-06-22T06:10:39;7.90;;;7.10;;
21426;SDS011;10874;49.452;11.050;2023-06-22T06:13:06;7.30;;;6.70;;
21426;SDS011;10874;49.452;11.050;2023-06-22T06:15:33;8.07;;;7.37;;
21426;SDS011;10874;49.452;11.050;2023-06-22T06:18:00;8.03;;;7.27;;
21426;SDS011;10874;49.452;11.050;2023-06-22T06:20:28;8.23;;;7.30;;
21426;SDS011;10874;49.452;11.050;2023-06-22T06:22:56;8.13;;;7.30;;
21426;SDS011;10874;49.452;11.050;2023-06-22T06:25:23;8.40;;;7.17;;
21426;SDS011;10874;49.452;11.050;2023-06-22T06:27:50;7.90;;;7.17;;
21426;SDS011;10874;49.452;11.050;2023-06-22T06:30:18;7.80;;;7.10;;
21426;SDS011;10874;49.452;11.050;2023-06-22T06:32:45;8.03;;;7.13;;
21426;SDS011;10874;49.452;11.050;2023-06-22T06:35:13;7.67;;;6.97;;
21426;SDS011;10874;49.452;11.050;2023-06-22T06:37:41;11.57;;;7.20;;
21426;SDS011;10874;49.452;11.050;2023-06-22T06:40:08;7.93;;;7.10;;
21426;SDS011;10874;49.452;11.050;2023-06-22T06:42:41;9.20;;;6.93;;
21426;SDS011;10874;49.452;11.050;2023-06-22T06:45:09;8.37;;;7.40;;
21426;SDS011;10874;49.452;11.050;2023-06-22T06:47:36;7.50;;;6.70;;
21426;SDS011;10874;49.452;11.050;2023-06-22T06:50:04;9.17;;;7.27;;
21426;SDS011;10874;49.452;11.050;2023-06-22T06:52:31;7.60;;;6.93;;
21426;SDS011;10874;49.452;11.050;2023-06-22T06:54:57;8.53;;;6.67;;
21426;SDS011;10874;49.452;11.050;2023-06-22T06:57:24;8.23;;;6.93;;
21426;SDS011;10874;49.452;11.050;2023-06-22T06:59:57;7.80;;;7.00;;
21426;SDS011;10874;49.452;11.050;2023-06-22T07:02:25;7.90;;;7.10;;
21426;SDS011;10874;49.452;11.050;2023-06-22T07:04:52;7.87;;;6.63;;
21426;SDS011;10874;49.452;11.050;2023-06-22T07:07:19;7.80;;;7.10;;
21426;SDS011;10874;49.452;11.050;2023-06-22T07:09:46;7.23;;;6.53;;
21426;SDS011;10874;49.452;11.050;2023-06-22T07:12:13;7.77;;;7.07;;
21426;SDS011;10874;49.452;11.050;2023-06-22T07:14:40;7.90;;;7.17;;
21426;SDS011;10874;49.452;11.050;2023-06-22T07:17:06;7.07;;;6.47;;
21426;SDS011;10874;49.452;11.050;2023-06-22T07:19:33;7.53;;;6.83;;
21426;SDS011;10874;49.452;11.050;2023-06-22T07:22:00;7.50;;;6.70;;
21426;SDS011;10874;49.452;11.050;2023-06-22T07:24:27;8.73;;;6.87;;
21426;SDS011;10874;49.452;11.050;2023-06-22T07:26:54;7.43;;;6.33;;
21426;SDS011;10874;49.452;11.050;2023-06-22T07:29:20;7.97;;;6.17;;
21426;SDS011;10874;49.452;11.050;2023-06-22T07:31:48;7.20;;;6.50;;
21426;SDS011;10874;49.452;11.050;2023-06-22T07:34:16;6.87;;;6.20;;
21426;SDS011;10874;49.452;11.050;2023-06-22T07:36:43;8.10;;;5.70;;
21426;SDS011;10874;49.452;11.050;2023-06-22T07:39:10;6.37;;;5.60;;
21426;SDS011;10874;49.452;11.050;2023-06-22T07:41:38;7.18;;;6.50;;
21426;SDS011;10874;49.452;11.050;2023-06-22T07:44:05;6.13;;;5.60;;
21426;SDS011;10874;49.452;11.050;2023-06-22T07:46:33;6.35;;;5.63;;
21426;SDS011;10874;49.452;11.050;2023-06-22T07:48:59;6.47;;;5.45;;
21426;SDS011;10874;49.452;11.050;2023-06-22T07:51:27;6.60;;;5.55;;
21426;SDS011;10874;49.452;11.050;2023-06-22T07:53:54;6.15;;;5.55;;
21426;SDS011;10874;49.452;11.050;2023-06-22T07:56:21;7.25;;;5.85;;
21426;SDS011;10874;49.452;11.050;2023-06-22T07:58:48;7.50;;;5.65;;
21426;SDS011;10874;49.452;11.050;2023-06-22T08:01:14;7.15;;;5.90;;
21426;SDS011;10874;49.452;11.050;2023-06-22T08:03:41;8.20;;;5.38;;
21426;SDS011;10874;49.452;11.050;2023-06-22T08:06:08;7.25;;;5.43;;
21426;SDS011;10874;49.452;11.050;2023-06-22T08:08:36;5.47;;;4.40;;
21426;SDS011;10874;49.452;11.050;2023-06-22T08:11:03;6.30;;;5.32;;
21426;SDS011;10874;49.452;11.050;2023-06-22T08:13:29;6.45;;;5.07;;
21426;SDS011;10874;49.452;11.050;2023-06-22T08:15:56;7.95;;;5.13;;
21426;SDS011;10874;49.452;11.050;2023-06-22T08:18:23;6.32;;;5.13;;
21426;SDS011;10874;49.452;11.050;2023-06-22T08:20:49;6.53;;;5.05;;
21426;SDS011;10874;49.452;11.050;2023-06-22T08:23:16;9.00;;;4.63;;
21426;SDS011;10874;49.452;11.050;2023-06-22T08:25:43;8.88;;;5.40;;
21426;SDS011;10874;49.452;11.050;2023-06-22T08:28:10;5.50;;;5.00;;
21426;SDS011;10874;49.452;11.050;2023-06-22T08:30:37;8.60;;;5.55;;
21426;SDS011;10874;49.452;11.050;2023-06-22T08:33:03;8.65;;;5.47;;
21426;SDS011;10874;49.452;11.050;2023-06-22T08:35:30;8.23;;;5.57;;
21426;SDS011;10874;49.452;11.050;2023-06-22T08:37:57;8.60;;;5.50;;
21426;SDS011;10874;49.452;11.050;2023-06-22T08:40:24;7.30;;;4.93;;
21426;SDS011;10874;49.452;11.050;2023-06-22T08:42:51;5.85;;;5.25;;
21426;SDS011;10874;49.452;11.050;2023-06-22T08:45:18;8.98;;;4.82;;
21426;SDS011;10874;49.452;11.050;2023-06-22T08:47:45;8.55;;;5.03;;
21426;SDS011;10874;49.452;11.050;2023-06-22T08:50:12;7.47;;;5.07;;
21426;SDS011;10874;49.452;11.050;2023-06-22T08:52:39;8.07;;;5.47;;
21426;SDS011;10874;49.452;11.050;2023-06-22T08:55:08;5.75;;;4.72;;
21426;SDS011;10874;49.452;11.050;2023-06-22T08:57:35;7.15;;;4.85;;
21426;SDS011;10874;49.452;11.050;2023-06-22T09:00:05;7.93;;;4.97;;
21426;SDS011;10874;49.452;11.050;2023-06-22T09:02:37;7.82;;;5.18;;
21426;SDS011;10874;49.452;11.050;2023-06-22T09:05:07;6.50;;;4.97;;
21426;SDS011;10874;49.452;11.050;2023-06-22T09:07:34;5.72;;;4.70;;
21426;SDS011;10874;49.452;11.050;2023-06-22T09:10:01;7.40;;;5.57;;
21426;SDS011;10874;49.452;11.050;2023-06-22T09:12:31;6.43;;;5.00;;
21426;SDS011;10874;49.452;11.050;2023-06-22T09:14:59;6.88;;;4.82;;
21426;SDS011;10874;49.452;11.050;2023-06-22T09:17:27;6.00;;;4.60;;
21426;SDS011;10874;49.452;11.050;2023-06-22T09:19:54;7.30;;;5.18;;
21426;SDS011;10874;49.452;11.050;2023-06-22T09:22:21;7.82;;;5.20;;
21426;SDS011;10874;49.452;11.050;2023-06-22T09:24:47;8.90;;;5.22;;
21426;SDS011;10874;49.452;11.050;2023-06-22T09:27:14;7.60;;;4.97;;
21426;SDS011;10874;49.452;11.050;2023-06-22T09:29:41;6.90;;;4.93;;
21426;SDS011;10874;49.452;11.050;2023-06-22T09:32:08;8.18;;;5.45;;
21426;SDS011;10874;49.452;11.050;2023-06-22T09:34:35;11.93;;;5.47;;
21426;SDS011;10874;49.452;11.050;2023-06-22T09:37:01;5.38;;;4.85;;
21426;SDS011;10874;49.452;11.050;2023-06-22T09:39:28;7.72;;;4.60;;
21426;SDS011;10874;49.452;11.050;2023-06-22T09:41:55;8.00;;;5.40;;
21426;SDS011;10874;49.452;11.050;2023-06-22T09:44:22;7.30;;;4.88;;
21426;SDS011;10874;49.452;11.050;2023-06-22T09:46:48;9.77;;;5.03;;
21426;SDS011;10874;49.452;11.050;2023-06-22T09:49:15;8.73;;;5.15;;
21426;SDS011;10874;49.452;11.050;2023-06-22T09:51:42;7.93;;;5.10;;
21426;SDS011;10874;49.452;11.050;2023-06-22T09:54:08;8.98;;;5.20;;
21426;SDS011;10874;49.452;11.050;2023-06-22T09:56:35;6.00;;;5.40;;
21426;SDS011;10874;49.452;11.050;2023-06-22T09:59:04;9.48;;;5.30;;
21426;SDS011;10874;49.452;11.050;2023-06-22T10:01:43;9.18;;;5.30;;
21426;SDS011;10874;49.452;11.050;2023-06-22T10:04:10;7.70;;;5.25;;
21426;SDS011;10874;49.452;11.050;2023-06-22T10:06:37;10.55;;;5.60;;
21426;SDS011;10874;49.452;11.050;2023-06-22T10:09:07;7.43;;;5.13;;
21426;SDS011;10874;49.452;11.050;2023-06-22T10:11:34;10.30;;;5.55;;
21426;SDS011;10874;49.452;11.050;2023-06-22T10:14:01;7.82;;;5.50;;
21426;SDS011;10874;49.452;11.050;2023-06-22T10:16:31;9.20;;;5.82;;
21426;SDS011;10874;49.452;11.050;2023-06-22T10:18:58;9.00;;;5.60;;
21426;SDS011;10874;49.452;11.050;2023-06-22T10:21:24;7.00;;;5.82;;
21426;SDS011;10874;49.452;11.050;2023-06-22T10:23:53;9.57;;;5.85;;
21426;SDS011;10874;49.452;11.050;2023-06-22T10:26:20;8.73;;;5.50;;
21426;SDS011;10874;49.452;11.050;2023-06-22T10:28:47;7.05;;;4.97;;
21426;SDS011;10874;49.452;11.050;2023-06-22T10:31:14;10.07;;;5.70;;
21426;SDS011;10874;49.452;11.050;2023-06-22T10:33:41;9.05;;;5.88;;
21426;SDS011;10874;49.452;11.050;2023-06-22T10:36:10;9.05;;;5.78;;
21426;SDS011;10874;49.452;11.050;2023-06-22T10:38:37;6.95;;;5.72;;
21426;SDS011;10874;49.452;11.050;2023-06-22T10:41:04;14.15;;;5.45;;
21426;SDS011;10874;49.452;11.050;2023-06-22T10:43:31;8.75;;;6.00;;
21426;SDS011;10874;49.452;11.050;2023-06-22T10:45:57;7.82;;;5.40;;
21426;SDS011;10874;49.452;11.050;2023-06-22T10:48:24;8.68;;;5.40;;
21426;SDS011;10874;49.452;11.050;2023-06-22T10:50:51;7.80;;;5.28;;
21426;SDS011;10874;49.452;11.050;2023-06-22T10:53:18;7.07;;;5.50;;
21426;SDS011;10874;49.452;11.050;2023-06-22T10:55:44;8.15;;;5.13;;
21426;SDS011;10874;49.452;11.050;2023-06-22T10:58:22;8.60;;;5.63;;
21426;SDS011;10874;49.452;11.050;2023-06-22T11:00:48;9.98;;;5.82;;
21426;SDS011;10874;49.452;11.050;2023-06-22T11:03:15;8.90;;;5.93;;
21426;SDS011;10874;49.452;11.050;2023-06-22T11:05:42;6.63;;;5.40;;
21426;SDS011;10874;49.452;11.050;2023-06-22T11:08:09;7.05;;;5.90;;
21426;SDS011;10874;49.452;11.050;2023-06-22T11:10:36;9.68;;;5.68;;
21426;SDS011;10874;49.452;11.050;2023-06-22T11:13:02;9.30;;;5.63;;
21426;SDS011;10874;49.452;11.050;2023-06-22T11:15:30;7.13;;;5.50;;
21426;SDS011;10874;49.452;11.050;2023-06-22T11:17:58;9.57;;;5.13;;
21426;SDS011;10874;49.452;11.050;2023-06-22T11:20:25;8.40;;;5.28;;
21426;SDS011;10874;49.452;11.050;2023-06-22T11:22:51;10.88;;;5.45;;
21426;SDS011;10874;49.452;11.050;2023-06-22T11:25:18;10.40;;;5.47;;
21426;SDS011;10874;49.452;11.050;2023-06-22T11:27:45;12.70;;;5.43;;
21426;SDS011;10874;49.452;11.050;2023-06-22T11:30:11;9.18;;;5.95;;
21426;SDS011;10874;49.452;11.050;2023-06-22T11:32:38;13.02;;;5.93;;
21426;SDS011;10874;49.452;11.050;2023-06-22T11:35:05;7.93;;;5.03;;
21426;SDS011;10874;49.452;11.050;2023-06-22T11:37:32;13.43;;;8.95;;
21426;SDS011;10874;49.452;11.050;2023-06-22T11:39:59;17.02;;;11.85;;
21426;SDS011;10874;49.452;11.050;2023-06-22T11:42:33;11.10;;;6.78;;
21426;SDS011;10874;49.452;11.050;2023-06-22T11:45:00;12.05;;;6.95;;
21426;SDS011;10874;49.452;11.050;2023-06-22T11:47:28;9.57;;;6.20;;
21426;SDS011;10874;49.452;11.050;2023-06-22T11:49:55;10.48;;;5.50;;
21426;SDS011;10874;49.452;11.050;2023-06-22T11:52:22;11.65;;;6.13;;
21426;SDS011;10874;49.452;11.050;2023-06-22T11:54:49;8.73;;;5.40;;
21426;SDS011;10874;49.452;11.050;2023-06-22T11:57:15;11.35;;;6.13;;
21426;SDS011;10874;49.452;11.050;2023-06-22T11:59:42;12.32;;;5.65;;
21426;SDS011;10874;49.452;11.050;2023-06-22T12:02:09;7.93;;;5.65;;
21426;SDS011;10874;49.452;11.050;2023-06-22T12:04:36;10.27;;;5.55;;
21426;SDS011;10874;49.452;11.050;2023-06-22T12:07:03;8.70;;;6.03;;
21426;SDS011;10874;49.452;11.050;2023-06-22T12:09:29;11.98;;;5.47;;
21426;SDS011;10874;49.452;11.050;2023-06-22T12:11:56;8.88;;;5.45;;
21426;SDS011;10874;49.452;11.050;2023-06-22T12:14:23;10.63;;;6.53;;
21426;SDS011;10874;49.452;11.050;2023-06-22T12:16:50;9.48;;;5.75;;
21426;SDS011;10874;49.452;11.050;2023-06-22T12:19:16;10.85;;;6.03;;
21426;SDS011;10874;49.452;11.050;2023-06-22T12:21:43;9.65;;;5.88;;
21426;SDS011;10874;49.452;11.050;2023-06-22T12:24:12;9.57;;;6.07;;
21426;SDS011;10874;49.452;11.050;2023-06-22T12:26:39;10.18;;;6.20;;
21426;SDS011;10874;49.452;11.050;2023-06-22T12:29:05;7.90;;;5.68;;
21426;SDS011;10874;49.452;11.050;2023-06-22T12:31:32;10.18;;;5.78;;
21426;SDS011;10874;49.452;11.050;2023-06-22T12:33:59;14.05;;;5.90;;
21426;SDS011;10874;49.452;11.050;2023-06-22T12:36:25;11.40;;;5.68;;
21426;SDS011;10874;49.452;11.050;2023-06-22T12:38:52;10.20;;;6.25;;
21426;SDS011;10874;49.452;11.050;2023-06-22T12:41:21;10.60;;;6.38;;
21426;SDS011;10874;49.452;11.050;2023-06-22T12:43:49;8.23;;;5.75;;
21426;SDS011;10874;49.452;11.050;2023-06-22T12:46:15;10.23;;;6.20;;
21426;SDS011;10874;49.452;11.050;2023-06-22T12:48:42;10.85;;;6.07;;
21426;SDS011;10874;49.452;11.050;2023-06-22T12:51:09;9.90;;;6.40;;
21426;SDS011;10874;49.452;11.050;2023-06-22T12:53:36;9.30;;;6.15;;
21426;SDS011;10874;49.452;11.050;2023-06-22T12:56:03;10.50;;;5.53;;
21426;SDS011;10874;49.452;11.050;2023-06-22T12:58:29;10.18;;;5.57;;
21426;SDS011;10874;49.452;11.050;2023-06-22T13:00:56;8.70;;;6.20;;
21426;SDS011;10874;49.452;11.050;2023-06-22T13:03:23;9.93;;;6.30;;
21426;SDS011;10874;49.452;11.050;2023-06-22T13:05:51;11.77;;;5.68;;
21426;SDS011;10874;49.452;11.050;2023-06-22T13:08:18;11.93;;;5.88;;
21426;SDS011;10874;49.452;11.050;2023-06-22T13:10:45;11.85;;;5.97;;
21426;SDS011;10874;49.452;11.050;2023-06-22T13:13:12;13.25;;;6.57;;
21426;SDS011;10874;49.452;11.050;2023-06-22T13:15:38;9.80;;;6.10;;
21426;SDS011;10874;49.452;11.050;2023-06-22T13:18:05;9.80;;;5.70;;
21426;SDS011;10874;49.452;11.050;2023-06-22T13:20:33;10.00;;;7.07;;
21426;SDS011;10874;49.452;11.050;2023-06-22T13:23:00;12.43;;;5.93;;
21426;SDS011;10874;49.452;11.050;2023-06-22T13:25:27;12.63;;;6.10;;
21426;SDS011;10874;49.452;11.050;2023-06-22T13:27:54;8.68;;;5.57;;
21426;SDS011;10874;49.452;11.050;2023-06-22T13:30:21;12.68;;;6.30;;
21426;SDS011;10874;49.452;11.050;2023-06-22T13:33:05;9.02;;;5.50;;
21426;SDS011;10874;49.452;11.050;2023-06-22T13:35:49;9.77;;;5.90;;
21426;SDS011;10874;49.452;11.050;2023-06-22T13:38:16;8.10;;;5.43;;
21426;SDS011;10874;49.452;11.050;2023-06-22T13:41:01;12.85;;;6.60;;
21426;SDS011;10874;49.452;11.050;2023-06-22T13:43:45;9.63;;;6.20;;
21426;SDS011;10874;49.452;11.050;2023-06-22T13:46:29;10.65;;;5.80;;
21426;SDS011;10874;49.452;11.050;2023-06-22T13:48:56;9.73;;;6.45;;
21426;SDS011;10874;49.452;11.050;2023-06-22T13:51:40;10.13;;;6.38;;
21426;SDS011;10874;49.452;11.050;2023-06-22T13:54:07;10.38;;;6.15;;
21426;SDS011;10874;49.452;11.050;2023-06-22T13:56:50;12.40;;;6.25;;
21426;SDS011;10874;49.452;11.050;2023-06-22T13:59:17;9.57;;;5.85;;
21426;SDS011;10874;49.452;11.050;2023-06-22T14:01:44;8.07;;;6.35;;
21426;SDS011;10874;49.452;11.050;2023-06-22T14:04:11;9.88;;;5.78;;
21426;SDS011;10874;49.452;11.050;2023-06-22T14:06:38;10.32;;;6.07;;
21426;SDS011;10874;49.452;11.050;2023-06-22T14:09:05;13.80;;;6.05;;
21426;SDS011;10874;49.452;11.050;2023-06-22T14:11:31;10.50;;;5.88;;
21426;SDS011;10874;49.452;11.050;2023-06-22T14:13:58;10.63;;;5.45;;
21426;SDS011;10874;49.452;11.050;2023-06-22T14:16:25;11.55;;;5.90;;
21426;SDS011;10874;49.452;11.050;2023-06-22T14:18:53;10.18;;;5.28;;
21426;SDS011;10874;49.452;11.050;2023-06-22T14:21:23;10.27;;;6.10;;
21426;SDS011;10874;49.452;11.050;2023-06-22T14:23:50;10.75;;;6.50;;
21426;SDS011;10874;49.452;11.050;2023-06-22T14:26:16;9.75;;;6.35;;
21426;SDS011;10874;49.452;11.050;2023-06-22T14:28:46;13.15;;;6.38;;
21426;SDS011;10874;49.452;11.050;2023-06-22T14:31:15;8.18;;;6.07;;
21426;SDS011;10874;49.452;11.050;2023-06-22T14:33:45;10.57;;;6.10;;
21426;SDS011;10874;49.452;11.050;2023-06-22T14:36:13;9.52;;;6.40;;
21426;SDS011;10874;49.452;11.050;2023-06-22T14:38:45;11.35;;;6.65;;
21426;SDS011;10874;49.452;11.050;2023-06-22T14:41:13;10.23;;;6.28;;
21426;SDS011;10874;49.452;11.050;2023-06-22T14:43:49;10.27;;;5.55;;
21426;SDS011;10874;49.452;11.050;2023-06-22T14:46:17;13.88;;;6.20;;
21426;SDS011;10874;49.452;11.050;2023-06-22T14:48:44;8.63;;;5.93;;